createdAt,value
2023-03-24T00:01:26.042Z,4.75
2023-03-24T00:03:54.658Z,4.45
2023-03-24T00:06:23.632Z,3.75
2023-03-24T00:08:53.104Z,3.55
2023-03-24T00:11:21.643Z,3.35
2023-03-24T00:13:51.613Z,5.75
2023-03-24T00:16:21.783Z,3.67
2023-03-24T00:18:54.035Z,5.38
2023-03-24T00:21:25.183Z,3.35
2023-03-24T00:23:58.335Z,5.13
2023-03-24T00:26:27.119Z,2.25
2023-03-24T00:28:57.206Z,5.30
2023-03-24T00:31:26.572Z,3.10
2023-03-24T00:33:55.479Z,4.30
2023-03-24T00:36:25.936Z,4.60
2023-03-24T00:38:55.606Z,3.38
2023-03-24T00:41:25.125Z,3.53
2023-03-24T00:43:58.293Z,5.82
2023-03-24T00:46:30.648Z,3.88
2023-03-24T00:49:05.674Z,4.80
2023-03-24T00:51:37.765Z,6.45
2023-03-24T00:54:07.014Z,4.00
2023-03-24T00:56:38.025Z,2.92
2023-03-24T00:59:10.274Z,3.22
2023-03-24T01:01:41.173Z,3.97
2023-03-24T01:04:10.121Z,3.65
2023-03-24T01:06:39.624Z,3.08
2023-03-24T01:09:10.621Z,3.08
2023-03-24T01:11:42.323Z,3.17
2023-03-24T01:14:12.807Z,3.63
2023-03-24T01:16:42.024Z,3.67
2023-03-24T01:19:10.448Z,3.85
2023-03-24T01:21:40.043Z,3.10
2023-03-24T01:24:09.388Z,4.18
2023-03-24T01:26:37.826Z,1.95
2023-03-24T01:29:06.080Z,1.70
2023-03-24T01:31:35.838Z,2.28
2023-03-24T01:34:04.319Z,2.17
2023-03-24T01:36:32.670Z,2.78
2023-03-24T01:39:01.501Z,4.40
2023-03-24T01:41:34.401Z,3.15
2023-03-24T01:44:02.696Z,2.22
2023-03-24T01:46:33.667Z,3.15
2023-03-24T01:49:06.252Z,2.60
2023-03-24T01:51:39.814Z,1.88
2023-03-24T01:54:11.282Z,2.55
2023-03-24T01:56:45.543Z,3.45
2023-03-24T01:59:16.484Z,3.17
2023-03-24T02:01:54.481Z,2.13
2023-03-24T02:04:42.616Z,2.17
2023-03-24T02:07:20.653Z,1.85
2023-03-24T02:09:49.972Z,3.50
2023-03-24T02:12:18.237Z,2.20
2023-03-24T02:14:47.583Z,5.57
2023-03-24T02:17:42.506Z,2.90
2023-03-24T02:21:01.381Z,3.78
2023-03-24T02:24:07.013Z,3.42
2023-03-24T02:26:57.946Z,2.65
2023-03-24T02:29:54.518Z,1.80
2023-03-24T02:33:07.115Z,2.53
2023-03-24T02:36:18.208Z,2.40
2023-03-24T02:39:30.456Z,3.55
2023-03-24T02:42:07.751Z,2.45
2023-03-24T02:44:43.151Z,2.42
2023-03-24T02:47:18.220Z,3.72
2023-03-24T02:49:57.078Z,2.08
2023-03-24T02:52:38.506Z,3.30
2023-03-24T02:55:16.473Z,3.35
2023-03-24T02:57:51.514Z,3.88
2023-03-24T03:00:47.688Z,2.50
2023-03-24T03:03:41.711Z,3.10
2023-03-24T03:06:17.948Z,3.13
2023-03-24T03:08:49.037Z,3.35
2023-03-24T03:11:19.822Z,4.70
2023-03-24T03:13:54.608Z,3.15
2023-03-24T03:16:26.191Z,3.08
2023-03-24T03:18:58.090Z,4.00
2023-03-24T03:21:29.230Z,3.58
2023-03-24T03:24:00.471Z,3.00
2023-03-24T03:26:32.931Z,3.20
2023-03-24T03:29:05.438Z,4.10
2023-03-24T03:31:37.635Z,4.70
2023-03-24T03:34:18.456Z,3.08
2023-03-24T03:36:53.535Z,4.13
2023-03-24T03:39:26.813Z,3.50
2023-03-24T03:41:58.114Z,4.28
2023-03-24T03:44:28.058Z,4.32
2023-03-24T03:46:57.303Z,4.60
2023-03-24T03:49:36.531Z,6.25
2023-03-24T03:52:05.331Z,3.35
2023-03-24T03:54:34.309Z,3.42
2023-03-24T03:57:04.751Z,4.05
2023-03-24T03:59:41.436Z,4.45
2023-03-24T04:02:30.538Z,3.00
2023-03-24T04:05:28.335Z,3.95
2023-03-24T04:08:22.029Z,3.25
2023-03-24T04:11:29.795Z,4.47
2023-03-24T04:14:37.369Z,3.53
2023-03-24T04:17:37.747Z,4.85
2023-03-24T04:20:14.859Z,3.00
2023-03-24T04:23:02.090Z,3.55
2023-03-24T04:25:36.467Z,3.47
2023-03-24T04:28:16.529Z,4.43
2023-03-24T04:30:50.390Z,4.07
2023-03-24T04:33:28.919Z,3.40
2023-03-24T04:36:06.779Z,3.22
2023-03-24T04:38:41.701Z,3.08
2023-03-24T04:41:37.765Z,3.33
2023-03-24T04:44:21.997Z,3.05
2023-03-24T04:47:10.095Z,3.10
2023-03-24T04:49:40.816Z,3.00
2023-03-24T04:52:09.647Z,4.05
2023-03-24T04:54:42.323Z,4.30
2023-03-24T04:57:11.108Z,2.45
2023-03-24T04:59:47.155Z,4.55
2023-03-24T05:02:18.996Z,2.40
2023-03-24T05:04:57.075Z,3.17
2023-03-24T05:07:33.854Z,3.08
2023-03-24T05:10:06.483Z,4.80
2023-03-24T05:12:40.373Z,3.05
2023-03-24T05:15:21.053Z,5.05
2023-03-24T05:17:55.098Z,3.38
2023-03-24T05:20:26.107Z,4.00
2023-03-24T05:22:55.127Z,4.53
2023-03-24T05:25:23.000Z,2.63
2023-03-24T05:27:52.111Z,3.22
2023-03-24T05:30:26.689Z,3.22
2023-03-24T05:33:03.723Z,4.95
2023-03-24T05:35:31.655Z,3.28
2023-03-24T05:38:01.666Z,3.22
2023-03-24T05:40:29.568Z,3.78
2023-03-24T05:43:17.775Z,3.42
2023-03-24T05:45:58.425Z,2.95
2023-03-24T05:48:32.966Z,3.60
2023-03-24T05:51:13.929Z,4.20
2023-03-24T05:53:43.017Z,4.88
2023-03-24T05:56:16.416Z,6.28
2023-03-24T05:59:08.008Z,5.82
2023-03-24T06:01:56.794Z,6.57
2023-03-24T06:04:33.935Z,5.25
2023-03-24T06:07:11.561Z,3.55
2023-03-24T06:09:42.647Z,3.67
2023-03-24T06:12:16.177Z,3.75
2023-03-24T06:15:11.947Z,6.05
2023-03-24T06:17:42.656Z,3.80
2023-03-24T06:20:19.689Z,3.75
2023-03-24T06:23:02.803Z,4.72
2023-03-24T06:25:47.567Z,4.90
2023-03-24T06:28:26.509Z,4.38
2023-03-24T06:30:58.824Z,4.70
2023-03-24T06:33:34.763Z,4.88
2023-03-24T06:36:05.488Z,4.55
2023-03-24T06:38:35.856Z,6.28
2023-03-24T06:41:09.395Z,3.03
2023-03-24T06:43:37.587Z,2.65
2023-03-24T06:46:06.191Z,3.58
2023-03-24T06:48:36.710Z,3.22
2023-03-24T06:51:09.894Z,3.63
2023-03-24T06:53:41.235Z,2.95
2023-03-24T06:56:09.482Z,1.20
2023-03-24T06:58:44.074Z,3.95
2023-03-24T07:01:27.221Z,3.05
2023-03-24T07:03:58.255Z,1.77
2023-03-24T07:06:29.865Z,1.58
2023-03-24T07:09:04.462Z,1.98
2023-03-24T07:11:32.732Z,2.00
2023-03-24T07:14:02.678Z,2.13
2023-03-24T07:16:32.392Z,3.95
2023-03-24T07:19:27.667Z,1.17
2023-03-24T07:22:16.881Z,4.65
2023-03-24T07:25:04.864Z,5.90
2023-03-24T07:27:42.833Z,5.88
2023-03-24T07:30:11.639Z,3.83
2023-03-24T07:32:43.941Z,5.68
2023-03-24T07:35:13.890Z,5.80
2023-03-24T07:37:44.304Z,4.63
2023-03-24T07:40:14.619Z,8.10
2023-03-24T07:42:43.904Z,4.95
2023-03-24T07:45:30.978Z,6.47
2023-03-24T07:48:02.182Z,4.78
2023-03-24T07:50:37.131Z,5.05
2023-03-24T07:53:19.944Z,5.07
2023-03-24T07:55:54.637Z,5.93
2023-03-24T07:58:25.461Z,6.80
2023-03-24T08:01:14.925Z,6.95
2023-03-24T08:03:49.347Z,8.85
2023-03-24T08:06:18.693Z,9.27
2023-03-24T08:08:53.199Z,8.07
2023-03-24T08:11:21.100Z,7.97
2023-03-24T08:13:49.232Z,9.90
2023-03-24T08:16:18.192Z,6.32
2023-03-24T08:18:46.279Z,7.07
2023-03-24T08:21:14.257Z,7.57
2023-03-24T08:23:42.192Z,9.40
2023-03-24T08:26:12.121Z,8.05
2023-03-24T08:28:40.304Z,9.88
2023-03-24T08:31:09.019Z,11.98
2023-03-24T08:33:37.375Z,11.18
2023-03-24T08:36:06.976Z,9.30
2023-03-24T08:38:38.988Z,7.20
2023-03-24T08:41:10.125Z,4.93
2023-03-24T08:43:39.793Z,9.05
2023-03-24T08:46:11.773Z,8.13
2023-03-24T08:48:41.346Z,8.35
2023-03-24T08:51:15.393Z,8.07
2023-03-24T08:53:43.543Z,9.10
2023-03-24T08:56:12.248Z,4.88
2023-03-24T08:58:41.514Z,6.93
2023-03-24T09:01:10.463Z,6.60
2023-03-24T09:03:39.914Z,6.95
2023-03-24T09:06:09.467Z,7.93
2023-03-24T09:08:37.435Z,10.88
2023-03-24T09:11:05.417Z,7.60
2023-03-24T09:13:33.737Z,6.93
2023-03-24T09:16:04.961Z,6.85
2023-03-24T09:18:33.354Z,7.13
2023-03-24T09:21:02.608Z,7.80
2023-03-24T09:23:31.569Z,9.15
2023-03-24T09:26:00.007Z,6.60
2023-03-24T09:28:28.091Z,5.20
2023-03-24T09:30:59.294Z,8.52
2023-03-24T09:33:30.398Z,10.55
2023-03-24T09:36:00.380Z,6.75
2023-03-24T09:38:30.486Z,5.55
2023-03-24T09:41:02.719Z,7.07
2023-03-24T09:43:38.569Z,7.30
2023-03-24T09:46:14.022Z,8.17
2023-03-24T09:48:49.071Z,9.33
2023-03-24T09:51:23.503Z,7.85
2023-03-24T09:53:56.044Z,8.00
2023-03-24T09:56:25.734Z,6.03
2023-03-24T09:59:03.673Z,4.75
2023-03-24T10:01:34.263Z,13.68
2023-03-24T10:04:05.260Z,5.25
2023-03-24T10:06:38.649Z,10.55
2023-03-24T10:09:22.785Z,5.65
2023-03-24T10:11:58.940Z,7.22
2023-03-24T10:14:42.401Z,6.82
2023-03-24T10:17:19.956Z,7.43
2023-03-24T10:20:00.323Z,7.57
2023-03-24T10:22:35.360Z,6.97
2023-03-24T10:25:14.736Z,6.88
2023-03-24T10:27:48.376Z,8.27
2023-03-24T10:30:20.687Z,8.43
2023-03-24T10:32:48.613Z,8.52
2023-03-24T10:35:22.980Z,10.13
2023-03-24T10:37:51.884Z,5.65
2023-03-24T10:40:33.433Z,10.93
2023-03-24T10:43:07.126Z,10.70
2023-03-24T10:45:39.460Z,6.80
2023-03-24T10:48:09.705Z,5.40
2023-03-24T10:50:43.734Z,7.13
2023-03-24T10:53:18.522Z,6.82
2023-03-24T10:55:47.936Z,6.80
2023-03-24T10:58:22.601Z,4.93
2023-03-24T11:00:51.684Z,4.53
2023-03-24T11:03:28.526Z,7.50
2023-03-24T11:06:03.928Z,7.28
2023-03-24T11:08:37.340Z,4.70
2023-03-24T11:11:15.730Z,3.35
2023-03-24T11:13:56.727Z,6.13
2023-03-24T11:16:29.387Z,5.18
2023-03-24T11:19:00.662Z,5.68
2023-03-24T11:21:32.080Z,6.05
2023-03-24T11:24:02.257Z,7.05
2023-03-24T11:26:33.658Z,6.00
2023-03-24T11:29:04.626Z,5.65
2023-03-24T11:31:38.281Z,4.68
2023-03-24T11:34:11.118Z,6.55
2023-03-24T11:36:58.261Z,7.97
2023-03-24T11:39:28.450Z,7.10
2023-03-24T11:42:17.282Z,8.65
2023-03-24T11:44:51.369Z,4.38
2023-03-24T11:47:40.275Z,5.93
2023-03-24T11:50:18.789Z,6.90
2023-03-24T11:52:56.118Z,6.40
2023-03-24T11:55:35.533Z,6.28
2023-03-24T11:58:07.205Z,6.65
2023-03-24T12:00:39.199Z,5.68
2023-03-24T12:03:38.502Z,3.33
2023-03-24T12:06:21.142Z,9.85
2023-03-24T12:09:04.189Z,10.88
2023-03-24T12:11:45.451Z,5.53
2023-03-24T12:14:18.247Z,5.10
2023-03-24T12:16:58.089Z,4.63
2023-03-24T12:20:08.165Z,4.95
2023-03-24T12:22:47.089Z,5.20
2023-03-24T12:25:54.729Z,8.35
2023-03-24T12:28:44.201Z,6.07
2023-03-24T12:31:27.152Z,9.35
2023-03-24T12:34:04.773Z,3.80
2023-03-24T12:36:42.787Z,10.05
2023-03-24T12:39:12.404Z,8.25
2023-03-24T12:42:04.242Z,9.32
2023-03-24T12:45:15.385Z,6.85
2023-03-24T12:48:10.724Z,5.68
2023-03-24T12:50:52.235Z,8.43
2023-03-24T12:53:36.335Z,5.15
2023-03-24T12:56:10.698Z,6.07
2023-03-24T12:58:45.860Z,5.60
2023-03-24T13:01:21.655Z,4.20
2023-03-24T13:03:55.879Z,6.93
2023-03-24T13:06:30.802Z,6.40
2023-03-24T13:09:10.936Z,4.45
2023-03-24T13:11:47.218Z,5.55
2023-03-24T13:14:25.036Z,6.88
2023-03-24T13:17:01.049Z,4.32
2023-03-24T13:19:30.040Z,4.53
2023-03-24T13:21:59.160Z,5.05
2023-03-24T13:24:28.188Z,8.32
2023-03-24T13:27:07.776Z,4.85
2023-03-24T13:30:07.445Z,5.22
2023-03-24T13:32:40.409Z,3.78
2023-03-24T13:35:19.558Z,4.53
2023-03-24T13:37:52.415Z,2.80
2023-03-24T13:40:24.351Z,4.20
2023-03-24T13:42:56.117Z,4.45
2023-03-24T13:45:42.935Z,4.47
2023-03-24T13:48:34.708Z,6.00
2023-03-24T13:51:11.231Z,5.75
2023-03-24T13:53:45.793Z,5.85
2023-03-24T13:56:23.196Z,9.18
2023-03-24T13:59:07.743Z,7.45
2023-03-24T14:01:40.070Z,5.45
2023-03-24T14:04:29.287Z,3.88
2023-03-24T14:06:58.871Z,3.63
2023-03-24T14:09:29.330Z,5.70
2023-03-24T14:12:22.867Z,6.00
2023-03-24T14:15:27.871Z,8.30
2023-03-24T14:18:14.594Z,6.63
2023-03-24T14:20:59.859Z,2.53
2023-03-24T14:23:37.566Z,6.22
2023-03-24T14:26:07.268Z,5.63
2023-03-24T14:28:39.120Z,3.95
2023-03-24T14:31:19.743Z,6.22
2023-03-24T14:34:03.925Z,4.35
2023-03-24T14:36:39.296Z,3.40
2023-03-24T14:39:21.950Z,6.72
2023-03-24T14:41:53.253Z,4.75
2023-03-24T14:44:54.121Z,5.88
2023-03-24T14:47:23.505Z,6.35
2023-03-24T14:49:54.948Z,2.97
2023-03-24T14:52:27.844Z,3.78
2023-03-24T14:54:59.957Z,4.05
2023-03-24T14:57:30.768Z,5.43
2023-03-24T15:00:10.664Z,5.38
2023-03-24T15:02:42.496Z,6.22
2023-03-24T15:05:22.997Z,5.43
2023-03-24T15:08:05.831Z,8.13
2023-03-24T15:10:39.093Z,5.32
2023-03-24T15:13:07.486Z,7.10
2023-03-24T15:15:35.866Z,5.75
2023-03-24T15:18:04.830Z,5.15
2023-03-24T15:20:37.324Z,8.57
2023-03-24T15:23:13.659Z,4.80
2023-03-24T15:25:43.201Z,4.22
2023-03-24T15:28:19.697Z,2.35
2023-03-24T15:30:48.763Z,2.03
2023-03-24T15:33:17.178Z,2.75
2023-03-24T15:35:47.446Z,2.03
2023-03-24T15:38:21.700Z,1.75
2023-03-24T15:41:01.408Z,2.67
2023-03-24T15:43:29.634Z,1.00
2023-03-24T15:46:11.760Z,2.85
2023-03-24T15:48:40.186Z,2.83
2023-03-24T15:51:12.297Z,1.75
2023-03-24T15:53:44.384Z,0.82
2023-03-24T15:56:21.823Z,1.17
2023-03-24T15:58:54.955Z,0.73
2023-03-24T16:01:31.072Z,2.65
2023-03-24T16:04:01.782Z,1.60
2023-03-24T16:06:35.098Z,2.90
2023-03-24T16:09:08.804Z,1.48
2023-03-24T16:11:36.941Z,1.25
2023-03-24T16:14:21.721Z,1.08
2023-03-24T16:16:54.846Z,2.17
2023-03-24T16:19:22.818Z,2.05
2023-03-24T16:21:52.082Z,1.13
2023-03-24T16:24:20.304Z,1.23
2023-03-24T16:26:48.882Z,1.15
2023-03-24T16:29:19.081Z,0.65
2023-03-24T16:31:49.220Z,1.30
2023-03-24T16:34:18.600Z,0.82
2023-03-24T16:36:47.573Z,0.80
2023-03-24T16:39:19.313Z,1.88
2023-03-24T16:41:47.151Z,0.60
2023-03-24T16:44:17.150Z,1.98
2023-03-24T16:46:46.879Z,4.53
2023-03-24T16:49:17.927Z,1.50
2023-03-24T16:51:46.900Z,2.45
2023-03-24T16:54:15.241Z,0.80
2023-03-24T16:56:44.525Z,1.90
2023-03-24T16:59:14.965Z,4.25
2023-03-24T17:01:45.788Z,0.95
2023-03-24T17:04:16.325Z,2.63
2023-03-24T17:06:49.124Z,1.25
2023-03-24T17:09:17.938Z,1.50
2023-03-24T17:11:50.767Z,1.05
2023-03-24T17:14:18.730Z,1.17
2023-03-24T17:16:49.651Z,2.63
2023-03-24T17:19:19.500Z,2.33
2023-03-24T17:21:50.750Z,2.60
2023-03-24T17:24:18.829Z,4.57
2023-03-24T17:26:48.928Z,1.20
2023-03-24T17:29:16.968Z,3.03
2023-03-24T17:31:44.909Z,4.15
2023-03-24T17:36:45.249Z,2.78
2023-03-24T17:39:18.086Z,3.70
2023-03-24T17:41:46.045Z,2.40
2023-03-24T17:44:15.408Z,3.25
2023-03-24T17:46:43.359Z,2.80
2023-03-24T17:49:11.532Z,2.00
2023-03-24T17:51:39.364Z,5.85
2023-03-24T17:54:07.645Z,4.70
2023-03-24T17:56:35.783Z,3.83
2023-03-24T17:59:04.813Z,2.38
2023-03-24T18:01:35.305Z,3.25
2023-03-24T18:04:04.308Z,5.50
2023-03-24T18:06:32.369Z,5.25
2023-03-24T18:09:00.375Z,4.22
2023-03-24T18:11:28.717Z,3.58
2023-03-24T18:13:56.549Z,3.00
2023-03-24T18:16:25.282Z,2.28
2023-03-24T18:18:55.726Z,4.85
2023-03-24T18:21:24.509Z,5.30
2023-03-24T18:23:53.400Z,6.40
2023-03-24T18:26:22.833Z,3.85
2023-03-24T18:28:50.711Z,10.32
2023-03-24T18:31:20.293Z,3.53
2023-03-24T18:33:48.816Z,3.92
2023-03-24T18:36:21.218Z,3.17
2023-03-24T18:38:50.895Z,3.85
2023-03-24T18:41:19.058Z,6.63
2023-03-24T18:43:47.929Z,4.30
2023-03-24T18:46:17.162Z,2.80
2023-03-24T18:48:47.651Z,6.07
2023-03-24T18:51:16.595Z,4.30
2023-03-24T18:53:48.720Z,2.90
2023-03-24T18:56:17.278Z,2.30
2023-03-24T18:58:50.948Z,3.17
2023-03-24T19:01:26.104Z,4.90
2023-03-24T19:03:54.512Z,4.50
2023-03-24T19:06:26.292Z,3.90
2023-03-24T19:08:55.815Z,4.43
2023-03-24T19:11:23.716Z,3.35
2023-03-24T19:13:51.884Z,5.20
2023-03-24T19:16:21.030Z,1.73
2023-03-24T19:18:52.816Z,3.22
2023-03-24T19:21:22.997Z,4.75
2023-03-24T19:23:52.603Z,2.40
2023-03-24T19:26:22.598Z,2.08
2023-03-24T19:28:51.009Z,4.95
2023-03-24T19:31:21.377Z,2.40
2023-03-24T19:33:52.154Z,3.05
2023-03-24T19:36:20.115Z,4.57
2023-03-24T19:38:49.075Z,3.65
2023-03-24T19:41:17.369Z,2.92
2023-03-24T19:43:48.974Z,2.10
2023-03-24T19:46:20.966Z,2.92
2023-03-24T19:48:49.389Z,1.92
2023-03-24T19:51:18.409Z,2.45
2023-03-24T19:53:46.842Z,1.75
2023-03-24T19:56:19.169Z,3.03
2023-03-24T19:58:48.641Z,4.38
2023-03-24T20:01:16.553Z,3.58
2023-03-24T20:03:44.790Z,4.35
2023-03-24T20:06:12.867Z,1.70
2023-03-24T20:08:42.945Z,2.40
2023-03-24T20:11:12.117Z,1.50
2023-03-24T20:13:40.318Z,3.00
2023-03-24T20:16:09.862Z,5.75
2023-03-24T20:18:39.224Z,3.03
2023-03-24T20:21:08.362Z,3.42
2023-03-24T20:23:36.578Z,5.65
2023-03-24T20:26:04.699Z,3.25
2023-03-24T20:28:33.050Z,4.03
2023-03-24T20:31:02.144Z,4.13
2023-03-24T20:33:31.874Z,3.40
2023-03-24T20:36:00.235Z,2.25
2023-03-24T20:38:28.174Z,2.83
2023-03-24T20:41:00.894Z,2.53
2023-03-24T20:43:29.607Z,5.47
2023-03-24T20:45:58.297Z,3.90
2023-03-24T20:48:26.527Z,3.30
2023-03-24T20:50:56.987Z,2.75
2023-03-24T20:53:26.583Z,3.75
2023-03-24T20:55:58.937Z,4.20
2023-03-24T20:58:27.562Z,6.22
2023-03-24T21:00:56.001Z,3.13
2023-03-24T21:03:25.066Z,1.95
2023-03-24T21:05:53.612Z,3.05
2023-03-24T21:08:26.014Z,3.25
2023-03-24T21:10:56.298Z,2.80
2023-03-24T21:13:24.317Z,2.90
2023-03-24T21:15:53.341Z,2.20
2023-03-24T21:18:21.137Z,4.00
2023-03-24T21:20:55.029Z,4.22
2023-03-24T21:23:24.919Z,2.88
2023-03-24T21:25:55.234Z,2.97
2023-03-24T21:28:28.029Z,2.58
2023-03-24T21:30:56.293Z,5.90
2023-03-24T21:33:24.218Z,2.17
2023-03-24T21:35:52.298Z,6.65
2023-03-24T21:38:20.317Z,4.95
2023-03-24T21:40:58.580Z,3.97
2023-03-24T21:43:29.359Z,2.40
2023-03-24T21:46:00.595Z,3.03
2023-03-24T21:48:29.999Z,3.58
2023-03-24T21:50:58.831Z,3.95
2023-03-24T21:53:27.274Z,3.65
2023-03-24T21:56:09.390Z,2.05
2023-03-24T21:58:37.571Z,2.65
2023-03-24T22:01:05.708Z,3.63
2023-03-24T22:03:37.332Z,2.65
2023-03-24T22:06:10.417Z,1.98
2023-03-24T22:08:39.111Z,3.17
2023-03-24T22:11:09.229Z,3.53
2023-03-24T22:13:39.396Z,2.53
2023-03-24T22:16:08.547Z,4.63
2023-03-24T22:18:36.636Z,3.35
2023-03-24T22:21:07.014Z,3.05
2023-03-24T22:23:38.025Z,3.58
2023-03-24T22:26:10.901Z,2.42
2023-03-24T22:28:39.389Z,2.35
2023-03-24T22:31:11.007Z,3.92
2023-03-24T22:33:41.375Z,5.35
2023-03-24T22:36:13.362Z,3.58
2023-03-24T22:38:42.376Z,3.95
2023-03-24T22:41:13.433Z,2.63
2023-03-24T22:43:42.950Z,4.45
2023-03-24T22:46:11.114Z,3.25
2023-03-24T22:48:39.368Z,2.22
2023-03-24T22:51:07.727Z,4.18
2023-03-24T22:53:35.998Z,3.80
2023-03-24T22:56:06.060Z,4.53
2023-03-24T22:58:37.944Z,2.85
2023-03-24T23:01:06.276Z,5.28
2023-03-24T23:03:34.245Z,2.28
2023-03-24T23:06:03.434Z,3.17
2023-03-24T23:08:33.169Z,2.95
2023-03-24T23:11:01.702Z,4.00
2023-03-24T23:13:30.758Z,3.88
2023-03-24T23:16:00.136Z,3.72
2023-03-24T23:18:27.982Z,3.00
2023-03-24T23:21:02.634Z,4.47
2023-03-24T23:23:30.977Z,3.70
2023-03-24T23:25:59.062Z,3.03
2023-03-24T23:28:26.929Z,3.13
2023-03-24T23:30:54.741Z,6.07
2023-03-24T23:33:24.384Z,2.05
2023-03-24T23:36:00.330Z,3.17
2023-03-24T23:38:28.408Z,4.30
2023-03-24T23:40:56.276Z,3.38
2023-03-24T23:43:24.186Z,2.97
2023-03-24T23:45:55.638Z,3.53
2023-03-24T23:48:25.387Z,3.33
2023-03-24T23:50:58.273Z,3.88
2023-03-24T23:53:27.183Z,4.47
2023-03-24T23:55:57.013Z,4.60
2023-03-24T23:58:24.988Z,3.42
